createdAt,value
2023-04-01T00:01:44.243Z,96748.38
2023-04-01T00:04:14.269Z,96736.72
2023-04-01T00:06:48.546Z,96742.94
2023-04-01T00:09:18.836Z,96738.41
2023-04-01T00:11:49.390Z,96740.16
2023-04-01T00:14:19.455Z,96742.47
2023-04-01T00:16:49.728Z,96740.91
2023-04-01T00:19:19.925Z,96738.16
2023-04-01T00:21:53.702Z,96745.34
2023-04-01T00:24:23.780Z,96734.22
2023-04-01T00:26:53.797Z,96736.22
2023-04-01T00:29:25.298Z,96733.06
2023-04-01T00:31:55.413Z,96734.28
2023-04-01T00:34:25.871Z,96727.25
2023-04-01T00:36:58.773Z,96738.19
2023-04-01T00:39:29.090Z,96741.69
2023-04-01T00:41:59.642Z,96745.22
2023-04-01T00:44:33.296Z,96740.53
2023-04-01T00:47:04.682Z,96741.72
2023-04-01T00:49:41.483Z,96744.59
2023-04-01T00:52:17.649Z,96747.66
2023-04-01T00:54:51.833Z,96753.88
2023-04-01T00:57:26.104Z,96751.34
2023-04-01T00:59:58.339Z,96757.53
2023-04-01T01:02:28.438Z,96759.84
2023-04-01T01:04:58.572Z,96760.22
2023-04-01T01:07:43.578Z,96753.59
2023-04-01T01:10:19.452Z,96754.75
2023-04-01T01:12:55.906Z,96753.59
2023-04-01T01:15:30.774Z,96743.22
2023-04-01T01:18:08.036Z,96748.63
2023-04-01T01:21:05.157Z,96745.72
2023-04-01T01:24:06.634Z,96750.78
2023-04-01T01:26:48.271Z,96754.50
2023-04-01T01:29:35.704Z,96752.97
2023-04-01T01:32:18.291Z,96756.06
2023-04-01T01:34:57.193Z,96756.25
2023-04-01T01:37:34.060Z,96751.38
2023-04-01T01:40:07.645Z,96751.38
2023-04-01T01:42:42.629Z,96751.56
2023-04-01T01:45:17.630Z,96746.16
2023-04-01T01:47:49.585Z,96744.78
2023-04-01T01:50:21.809Z,96746.72
2023-04-01T01:52:55.100Z,96753.13
2023-04-01T01:55:32.672Z,96749.28
2023-04-01T01:58:09.272Z,96753.72
2023-04-01T02:00:46.077Z,96753.34
2023-04-01T02:03:19.061Z,96742.28
2023-04-01T02:05:50.200Z,96741.31
2023-04-01T02:08:29.155Z,96751.25
2023-04-01T02:11:03.155Z,96752.47
2023-04-01T02:13:45.167Z,96750.28
2023-04-01T02:16:22.504Z,96757.53
2023-04-01T02:18:55.967Z,96753.75
2023-04-01T02:21:31.566Z,96742.50
2023-04-01T02:24:08.323Z,96759.66
2023-04-01T02:26:39.683Z,96758.13
2023-04-01T02:29:11.837Z,96752.28
2023-04-01T02:31:43.092Z,96753.84
2023-04-01T02:34:13.891Z,96756.00
2023-04-01T02:36:44.861Z,96769.81
2023-04-01T02:39:18.734Z,96764.16
2023-04-01T02:41:51.936Z,96764.16
2023-04-01T02:44:22.368Z,96760.47
2023-04-01T02:46:52.568Z,96759.31
2023-04-01T02:49:23.613Z,96756.59
2023-04-01T02:51:53.851Z,96754.22
2023-04-01T02:54:26.933Z,96760.28
2023-04-01T02:56:57.578Z,96758.91
2023-04-01T02:59:30.466Z,96753.88
2023-04-01T03:02:01.000Z,96760.09
2023-04-01T03:04:31.553Z,96757.75
2023-04-01T03:07:02.002Z,96754.66
2023-04-01T03:09:34.717Z,96751.56
2023-04-01T03:12:04.830Z,96744.16
2023-04-01T03:14:41.604Z,96745.91
2023-04-01T03:17:11.676Z,96748.44
2023-04-01T03:19:42.004Z,96755.22
2023-04-01T03:22:16.905Z,96753.47
2023-04-01T03:24:49.788Z,96753.47
2023-04-01T03:27:20.798Z,96751.16
2023-04-01T03:29:51.164Z,96746.28
2023-04-01T03:32:21.928Z,96753.22
2023-04-01T03:34:51.985Z,96759.66
2023-04-01T03:37:22.551Z,96757.69
2023-04-01T03:39:55.668Z,96762.22
2023-04-01T03:42:26.086Z,96761.66
2023-04-01T03:45:11.286Z,96759.50
2023-04-01T03:47:41.620Z,96760.91
2023-04-01T03:50:15.169Z,96762.25
2023-04-01T03:52:47.625Z,96762.84
2023-04-01T03:55:21.772Z,96753.50
2023-04-01T03:57:53.729Z,96757.00
2023-04-01T04:00:24.488Z,96751.16
2023-04-01T04:02:59.062Z,96750.38
2023-04-01T04:05:35.482Z,96745.72
2023-04-01T04:08:08.055Z,96738.69
2023-04-01T04:10:41.099Z,96741.75
2023-04-01T04:13:11.529Z,96736.28
2023-04-01T04:15:50.622Z,96732.97
2023-04-01T04:18:23.976Z,96737.66
2023-04-01T04:20:54.651Z,96737.63
2023-04-01T04:23:25.160Z,96747.16
2023-04-01T04:26:03.543Z,96741.72
2023-04-01T04:28:34.388Z,96741.75
2023-04-01T04:31:10.741Z,96738.25
2023-04-01T04:33:41.161Z,96740.56
2023-04-01T04:36:14.195Z,96736.66
2023-04-01T04:38:54.638Z,96740.91
2023-04-01T04:41:37.539Z,96733.88
2023-04-01T04:44:09.709Z,96726.91
2023-04-01T04:46:40.606Z,96744.78
2023-04-01T04:49:17.902Z,96732.34
2023-04-01T04:51:48.078Z,96727.66
2023-04-01T04:54:19.840Z,96734.53
2023-04-01T04:57:01.554Z,96734.16
2023-04-01T04:59:35.821Z,96733.00
2023-04-01T05:02:13.852Z,96736.16
2023-04-01T05:04:44.406Z,96736.75
2023-04-01T05:07:15.125Z,96733.63
2023-04-01T05:09:46.917Z,96732.69
2023-04-01T05:12:21.531Z,96727.41
2023-04-01T05:15:05.799Z,96732.28
2023-04-01T05:17:36.405Z,96725.47
2023-04-01T05:20:08.659Z,96721.97
2023-04-01T05:22:39.838Z,96716.50
2023-04-01T05:25:10.992Z,96715.53
2023-04-01T05:27:44.253Z,96709.88
2023-04-01T05:30:15.819Z,96711.44
2023-04-01T05:32:58.257Z,96708.53
2023-04-01T05:35:28.623Z,96711.22
2023-04-01T05:37:58.802Z,96710.25
2023-04-01T05:40:29.230Z,96708.28
2023-04-01T05:43:03.717Z,96713.72
2023-04-01T05:45:34.034Z,96710.25
2023-04-01T05:48:16.889Z,96715.25
2023-04-01T05:50:48.556Z,96704.13
2023-04-01T05:53:19.098Z,96711.66
2023-04-01T05:55:50.261Z,96701.06
2023-04-01T05:58:23.342Z,96715.03
2023-04-01T06:01:05.822Z,96704.44
2023-04-01T06:03:39.323Z,96709.03
2023-04-01T06:06:16.932Z,96716.63
2023-04-01T06:08:47.901Z,96718.53
2023-04-01T06:11:36.764Z,96711.00
2023-04-01T06:14:31.660Z,96723.94
2023-04-01T06:17:19.591Z,96698.28
2023-04-01T06:20:01.798Z,96697.81
2023-04-01T06:22:47.046Z,96704.34
2023-04-01T06:25:33.739Z,96695.88
2023-04-01T06:28:21.275Z,96703.91
2023-04-01T06:31:05.144Z,96708.81
2023-04-01T06:33:57.463Z,96710.84
2023-04-01T06:36:46.467Z,96708.28
2023-04-01T06:39:46.728Z,96707.38
2023-04-01T06:42:36.039Z,96712.41
2023-04-01T06:45:24.902Z,96716.50
2023-04-01T06:48:39.187Z,96715.50
2023-04-01T06:51:35.095Z,96713.03
2023-04-01T06:54:36.231Z,96707.97
2023-04-01T06:57:16.185Z,96713.47
2023-04-01T06:59:46.591Z,96709.56
2023-04-01T07:02:28.838Z,96708.81
2023-04-01T07:05:03.317Z,96704.28
2023-04-01T07:07:40.668Z,96705.97
2023-04-01T07:10:19.384Z,96706.66
2023-04-01T07:13:14.076Z,96706.63
2023-04-01T07:16:02.159Z,96708.16
2023-04-01T07:18:41.239Z,96710.50
2023-04-01T07:21:24.457Z,96712.69
2023-04-01T07:23:59.095Z,96700.97
2023-04-01T07:26:48.214Z,96705.16
2023-04-01T07:29:23.159Z,96705.75
2023-04-01T07:32:37.327Z,96707.91
2023-04-01T07:35:18.817Z,96694.50
2023-04-01T07:38:04.023Z,96709.25
2023-04-01T07:40:49.803Z,96710.91
2023-04-01T07:43:34.496Z,96707.03
2023-04-01T07:46:31.929Z,96716.28
2023-04-01T07:49:08.042Z,96713.91
2023-04-01T07:51:48.560Z,96714.16
2023-04-01T07:54:26.917Z,96721.88
2023-04-01T07:57:04.614Z,96718.88
2023-04-01T07:59:56.074Z,96723.63
2023-04-01T08:02:44.617Z,96723.78
2023-04-01T08:05:26.865Z,96722.66
2023-04-01T08:08:07.624Z,96725.22
2023-04-01T08:11:08.366Z,96732.66
2023-04-01T08:14:16.466Z,96721.28
2023-04-01T08:17:09.279Z,96724.25
2023-04-01T08:20:00.208Z,96723.78
2023-04-01T08:22:40.792Z,96715.44
2023-04-01T08:25:23.794Z,96724.19
2023-04-01T08:28:03.104Z,96718.09
2023-04-01T08:30:44.611Z,96724.00
2023-04-01T08:33:23.873Z,96728.56
2023-04-01T08:36:03.678Z,96724.84
2023-04-01T08:38:38.997Z,96725.84
2023-04-01T08:41:33.228Z,96732.00
2023-04-01T08:44:53.576Z,96733.47
2023-04-01T08:47:46.251Z,96732.34
2023-04-01T08:50:35.512Z,96729.13
2023-04-01T08:53:48.901Z,96728.00
2023-04-01T08:56:25.225Z,96729.16
2023-04-01T08:59:21.036Z,96730.72
2023-04-01T09:02:09.255Z,96736.00
2023-04-01T09:05:39.835Z,96728.38
2023-04-01T09:08:33.149Z,96721.31
2023-04-01T09:11:13.869Z,96725.38
2023-04-01T09:14:27.537Z,96719.06
2023-04-01T09:17:53.319Z,96736.00
2023-04-01T09:20:43.677Z,96733.19
2023-04-01T09:23:31.504Z,96744.34
2023-04-01T09:26:15.595Z,96730.94
2023-04-01T09:28:54.761Z,96737.28
2023-04-01T09:31:57.528Z,96736.53
2023-04-01T09:35:11.836Z,96742.16
2023-04-01T09:37:57.222Z,96749.66
2023-04-01T09:40:41.239Z,96740.88
2023-04-01T09:43:30.262Z,96738.22
2023-04-01T09:46:15.769Z,96749.16
2023-04-01T09:49:15.778Z,96753.63
2023-04-01T09:51:57.603Z,96757.69
2023-04-01T09:54:47.181Z,96755.25
2023-04-01T09:57:58.109Z,96768.19
2023-04-01T10:01:30.277Z,96771.28
2023-04-01T10:04:47.595Z,96770.88
2023-04-01T10:07:49.362Z,96763.63
2023-04-01T10:11:02.771Z,96762.97
2023-04-01T10:14:08.177Z,96766.28
2023-04-01T10:17:18.575Z,96771.44
2023-04-01T10:20:10.292Z,96770.88
2023-04-01T10:23:17.089Z,96768.63
2023-04-01T10:26:17.905Z,96766.94
2023-04-01T10:29:40.371Z,96771.03
2023-04-01T10:32:42.920Z,96767.00
2023-04-01T10:35:52.436Z,96766.59
2023-04-01T10:38:52.519Z,96764.81
2023-04-01T10:41:53.041Z,96762.69
2023-04-01T10:45:14.547Z,96772.31
2023-04-01T10:48:16.587Z,96769.72
2023-04-01T10:51:17.802Z,96774.00
2023-04-01T10:54:13.230Z,96778.72
2023-04-01T10:57:02.255Z,96774.44
2023-04-01T11:00:23.112Z,96772.25
2023-04-01T11:03:40.419Z,96777.38
2023-04-01T11:07:20.150Z,96777.50
2023-04-01T11:10:31.063Z,96774.47
2023-04-01T11:13:43.219Z,96795.25
2023-04-01T11:16:41.270Z,96789.66
2023-04-01T11:19:43.249Z,96785.22
2023-04-01T11:22:35.744Z,96783.13
2023-04-01T11:25:27.915Z,96778.09
2023-04-01T11:28:48.911Z,96774.63
2023-04-01T11:31:48.058Z,96781.28
2023-04-01T11:34:45.634Z,96786.16
2023-04-01T11:37:29.772Z,96785.34
2023-04-01T11:40:33.011Z,96792.25
2023-04-01T11:43:34.152Z,96777.88
2023-04-01T11:46:35.438Z,96798.72
2023-04-01T11:49:29.585Z,96791.97
2023-04-01T11:52:30.638Z,96794.06
2023-04-01T11:55:13.172Z,96801.72
2023-04-01T11:58:16.151Z,96803.28
2023-04-01T12:01:01.349Z,96800.78
2023-04-01T12:03:56.828Z,96807.75
2023-04-01T12:06:34.321Z,96811.41
2023-04-01T12:09:12.175Z,96812.31
2023-04-01T12:11:49.454Z,96803.66
2023-04-01T12:14:25.618Z,96813.50
2023-04-01T12:17:11.878Z,96799.56
2023-04-01T12:19:52.195Z,96805.88
2023-04-01T12:22:46.615Z,96810.72
2023-04-01T12:25:30.683Z,96821.75
2023-04-01T12:28:19.923Z,96815.50
2023-04-01T12:31:02.129Z,96807.56
2023-04-01T12:33:49.262Z,96809.03
2023-04-01T12:36:36.335Z,96820.28
2023-04-01T12:39:43.012Z,96815.94
2023-04-01T12:42:35.566Z,96821.28
2023-04-01T12:45:32.596Z,96816.13
2023-04-01T12:48:41.972Z,96826.00
2023-04-01T12:51:46.894Z,96811.63
2023-04-01T12:54:52.556Z,96821.88
2023-04-01T12:57:42.704Z,96829.00
2023-04-01T13:00:31.307Z,96819.00
2023-04-01T13:03:21.175Z,96826.44
2023-04-01T13:06:24.187Z,96823.66
2023-04-01T13:09:05.808Z,96823.31
2023-04-01T13:11:49.067Z,96822.34
2023-04-01T13:14:36.921Z,96832.31
2023-04-01T13:17:17.520Z,96838.25
2023-04-01T13:20:04.220Z,96836.59
2023-04-01T13:22:48.835Z,96831.44
2023-04-01T13:25:29.142Z,96835.09
2023-04-01T13:28:07.893Z,96825.56
2023-04-01T13:30:47.150Z,96836.44
2023-04-01T13:33:28.612Z,96832.94
2023-04-01T13:36:09.672Z,96834.88
2023-04-01T13:39:02.597Z,96841.69
2023-04-01T13:41:45.067Z,96843.00
2023-04-01T13:44:21.152Z,96847.72
2023-04-01T13:47:21.498Z,96846.81
2023-04-01T13:50:12.676Z,96859.78
2023-04-01T13:53:07.083Z,96863.59
2023-04-01T13:55:49.526Z,96863.19
2023-04-01T13:58:55.162Z,96861.94
2023-04-01T14:01:36.373Z,96861.81
2023-04-01T14:04:44.428Z,96859.06
2023-04-01T14:07:42.799Z,96861.69
2023-04-01T14:10:26.983Z,96859.31
2023-04-01T14:13:04.076Z,96864.19
2023-04-01T14:15:46.328Z,96875.69
2023-04-01T14:18:42.691Z,96861.56
2023-04-01T14:21:25.734Z,96879.16
2023-04-01T14:24:27.616Z,96863.13
2023-04-01T14:27:26.621Z,96856.41
2023-04-01T14:30:06.919Z,96851.13
2023-04-01T14:32:49.122Z,96873.78
2023-04-01T14:35:37.705Z,96866.63
2023-04-01T14:38:31.490Z,96869.81
2023-04-01T14:41:15.217Z,96884.41
2023-04-01T14:43:57.587Z,96876.34
2023-04-01T14:47:00.815Z,96878.56
2023-04-01T14:49:38.265Z,96871.28
2023-04-01T14:52:19.877Z,96874.41
2023-04-01T14:54:54.719Z,96874.69
2023-04-01T14:57:30.154Z,96889.81
2023-04-01T15:00:04.993Z,96877.09
2023-04-01T15:02:48.341Z,96877.34
2023-04-01T15:05:30.498Z,96877.59
2023-04-01T15:08:18.188Z,96879.28
2023-04-01T15:11:08.893Z,96881.09
2023-04-01T15:14:11.883Z,96882.25
2023-04-01T15:16:51.187Z,96889.22
2023-04-01T15:19:34.309Z,96885.56
2023-04-01T15:22:17.285Z,96892.78
2023-04-01T15:24:54.315Z,96899.53
2023-04-01T15:27:49.597Z,96896.44
2023-04-01T15:30:32.387Z,96903.75
2023-04-01T15:33:17.644Z,96902.50
2023-04-01T15:35:56.119Z,96906.19
2023-04-01T15:38:37.086Z,96895.88
2023-04-01T15:41:15.766Z,96901.19
2023-04-01T15:43:50.033Z,96902.84
2023-04-01T15:46:34.205Z,96910.38
2023-04-01T15:49:16.125Z,96907.59
2023-04-01T15:51:58.788Z,96902.50
2023-04-01T15:54:42.553Z,96910.47
2023-04-01T15:57:36.190Z,96918.41
2023-04-01T16:00:27.972Z,96921.06
2023-04-01T16:03:21.689Z,96925.38
2023-04-01T16:06:06.841Z,96936.66
2023-04-01T16:08:58.818Z,96929.22
2023-04-01T16:11:41.941Z,96925.63
2023-04-01T16:14:25.782Z,96933.91
2023-04-01T16:17:12.012Z,96944.94
2023-04-01T16:19:54.239Z,96943.19
2023-04-01T16:22:30.900Z,96947.72
2023-04-01T16:25:21.630Z,96938.69
2023-04-01T16:28:00.267Z,96948.03
2023-04-01T16:30:40.808Z,96941.84
2023-04-01T16:33:27.203Z,96950.75
2023-04-01T16:36:01.871Z,96942.03
2023-04-01T16:38:45.007Z,96943.94
2023-04-01T16:41:23.946Z,96946.63
2023-04-01T16:44:04.113Z,96942.16
2023-04-01T16:46:44.231Z,96948.69
2023-04-01T16:49:44.381Z,96946.06
2023-04-01T16:52:21.886Z,96951.41
2023-04-01T16:55:03.705Z,96960.19
2023-04-01T16:57:47.494Z,96952.44
2023-04-01T17:00:27.391Z,96950.50
2023-04-01T17:03:18.579Z,96962.72
2023-04-01T17:06:03.810Z,96966.16
2023-04-01T17:09:06.704Z,96954.31
2023-04-01T17:11:51.872Z,96960.63
2023-04-01T17:14:33.713Z,96958.50
2023-04-01T17:17:28.607Z,96956.22
2023-04-01T17:20:11.307Z,96960.63
2023-04-01T17:22:51.079Z,96955.31
2023-04-01T17:25:33.178Z,96964.00
2023-04-01T17:28:14.661Z,96966.06
2023-04-01T17:30:51.434Z,96965.25
2023-04-01T17:33:47.997Z,96980.97
2023-04-01T17:36:32.642Z,96976.59
2023-04-01T17:39:36.472Z,96982.97
2023-04-01T17:42:13.550Z,96985.63
2023-04-01T17:45:03.426Z,96988.13
2023-04-01T17:47:46.663Z,96988.63
2023-04-01T17:50:32.330Z,96986.66
2023-04-01T17:53:26.637Z,96994.41
2023-04-01T17:56:15.035Z,96990.53
2023-04-01T17:58:50.442Z,96997.31
2023-04-01T18:01:31.006Z,97000.56
2023-04-01T18:04:22.080Z,97003.16
2023-04-01T18:07:21.934Z,96995.47
2023-04-01T18:10:08.897Z,97012.22
2023-04-01T18:13:11.387Z,97017.31
2023-04-01T18:15:49.731Z,97015.88
2023-04-01T18:18:40.939Z,97024.88
2023-04-01T18:21:21.094Z,97030.94
2023-04-01T18:24:02.655Z,97034.75
2023-04-01T18:26:38.151Z,97043.41
2023-04-01T18:29:24.263Z,97042.72
2023-04-01T18:32:01.900Z,97048.84
2023-04-01T18:34:47.397Z,97059.59
2023-04-01T18:37:23.263Z,97071.81
2023-04-01T18:39:57.113Z,97057.22
2023-04-01T18:42:36.973Z,97071.91
2023-04-01T18:45:22.888Z,97064.75
2023-04-01T18:48:02.846Z,97069.44
2023-04-01T18:50:41.957Z,97078.06
2023-04-01T18:53:19.622Z,97077.69
2023-04-01T18:55:53.703Z,97085.69
2023-04-01T18:58:47.398Z,97079.03
2023-04-01T19:01:29.374Z,97081.22
2023-04-01T19:04:14.093Z,97077.28
2023-04-01T19:06:49.203Z,97077.88
2023-04-01T19:09:27.927Z,97081.59
2023-04-01T19:12:28.918Z,97087.44
2023-04-01T19:15:22.789Z,97084.34
2023-04-01T19:18:13.053Z,97083.56
2023-04-01T19:20:47.596Z,97078.28
2023-04-01T19:23:46.008Z,97082.38
2023-04-01T19:26:21.181Z,97088.56
2023-04-01T19:28:58.334Z,97095.97
2023-04-01T19:31:42.893Z,97092.00
2023-04-01T19:34:31.773Z,97094.69
2023-04-01T19:37:06.690Z,97104.59
2023-04-01T19:39:54.847Z,97100.28
2023-04-01T19:42:34.591Z,97097.59
2023-04-01T19:45:19.697Z,97097.44
2023-04-01T19:48:01.491Z,97093.75
2023-04-01T19:50:39.691Z,97080.31
2023-04-01T19:53:22.427Z,97088.91
2023-04-01T19:55:57.603Z,97095.38
2023-04-01T19:58:36.044Z,97096.56
2023-04-01T20:01:08.377Z,97104.56
2023-04-01T20:03:46.377Z,97108.50
2023-04-01T20:06:32.116Z,97108.88
2023-04-01T20:09:26.211Z,97110.03
2023-04-01T20:12:03.619Z,97122.72
2023-04-01T20:14:41.434Z,97135.00
2023-04-01T20:17:23.242Z,97141.06
2023-04-01T20:20:01.971Z,97147.16
2023-04-01T20:22:55.555Z,97146.56
2023-04-01T20:25:28.672Z,97136.63
2023-04-01T20:28:05.426Z,97139.34
2023-04-01T20:31:05.092Z,97138.91
2023-04-01T20:33:58.966Z,97136.19
2023-04-01T20:36:36.235Z,97137.38
2023-04-01T20:39:33.011Z,97146.34
2023-04-01T20:42:30.739Z,97151.03
2023-04-01T20:45:19.440Z,97152.44
2023-04-01T20:48:06.331Z,97150.47
2023-04-01T20:50:44.559Z,97156.13
2023-04-01T20:53:20.819Z,97163.34
2023-04-01T20:56:21.795Z,97152.25
2023-04-01T20:59:00.720Z,97158.28
2023-04-01T21:01:43.170Z,97152.63
2023-04-01T21:04:30.689Z,97162.00
2023-04-01T21:07:15.325Z,97160.59
2023-04-01T21:10:10.987Z,97165.50
2023-04-01T21:12:52.388Z,97172.34
2023-04-01T21:15:51.917Z,97169.81
2023-04-01T21:18:38.739Z,97175.28
2023-04-01T21:21:35.790Z,97182.31
2023-04-01T21:24:36.507Z,97176.84
2023-04-01T21:27:17.010Z,97187.00
2023-04-01T21:29:58.712Z,97188.94
2023-04-01T21:32:42.578Z,97183.06
2023-04-01T21:35:28.582Z,97186.56
2023-04-01T21:38:07.867Z,97189.50
2023-04-01T21:40:59.377Z,97180.13
2023-04-01T21:43:54.751Z,97183.66
2023-04-01T21:46:55.081Z,97179.72
2023-04-01T21:49:44.771Z,97186.38
2023-04-01T21:52:40.214Z,97189.72
2023-04-01T21:55:35.574Z,97201.03
2023-04-01T21:58:51.629Z,97206.91
2023-04-01T22:02:04.303Z,97206.13
2023-04-01T22:04:55.807Z,97211.19
2023-04-01T22:07:30.284Z,97214.13
2023-04-01T22:10:15.990Z,97202.22
2023-04-01T22:12:53.012Z,97210.78
2023-04-01T22:15:33.809Z,97217.03
2023-04-01T22:18:15.547Z,97218.97
2023-04-01T22:20:54.114Z,97218.56
2023-04-01T22:23:36.121Z,97218.97
2023-04-01T22:26:13.989Z,97215.66
2023-04-01T22:28:53.733Z,97227.28
2023-04-01T22:31:31.989Z,97224.75
2023-04-01T22:34:16.996Z,97230.03
2023-04-01T22:36:59.692Z,97224.75
2023-04-01T22:39:47.258Z,97223.44
2023-04-01T22:42:34.341Z,97219.31
2023-04-01T22:45:24.881Z,97231.97
2023-04-01T22:48:03.769Z,97226.94
2023-04-01T22:50:43.765Z,97228.72
2023-04-01T22:53:28.622Z,97230.28
2023-04-01T22:56:05.311Z,97228.72
2023-04-01T22:58:39.782Z,97234.97
2023-04-01T23:01:14.917Z,97237.31
2023-04-01T23:03:48.739Z,97243.53
2023-04-01T23:06:29.712Z,97242.81
2023-04-01T23:09:14.932Z,97246.28
2023-04-01T23:11:51.025Z,97253.34
2023-04-01T23:14:41.918Z,97250.97
2023-04-01T23:17:32.570Z,97254.06
2023-04-01T23:20:12.386Z,97261.13
2023-04-01T23:22:56.275Z,97269.34
2023-04-01T23:25:38.065Z,97266.97
2023-04-01T23:28:29.438Z,97274.38
2023-04-01T23:30:59.980Z,97285.50
2023-04-01T23:33:34.183Z,97287.25
2023-04-01T23:36:14.692Z,97287.06
2023-04-01T23:38:52.518Z,97289.38
2023-04-01T23:41:25.960Z,97291.91
2023-04-01T23:44:00.424Z,97291.13
2023-04-01T23:46:33.333Z,97289.19
2023-04-01T23:49:06.293Z,97295.44
2023-04-01T23:51:43.579Z,97291.91
2023-04-01T23:54:23.071Z,97289.56
2023-04-01T23:56:58.965Z,97294.25
2023-04-01T23:59:34.067Z,97297.91
